sensor_id;sensor_type;location;lat;lon;timestamp;P1;durP1;ratioP1;P2;durP2;ratioP2
70126;SDS011;57491;42.694;23.314;2023-04-03T00:01:51;5.68;;;3.13;;
70126;SDS011;57491;42.694;23.314;2023-04-03T00:04:19;4.55;;;2.92;;
70126;SDS011;57491;42.694;23.314;2023-04-03T00:06:46;5.53;;;2.95;;
70126;SDS011;57491;42.694;23.314;2023-04-03T00:09:13;4.93;;;2.90;;
70126;SDS011;57491;42.694;23.314;2023-04-03T00:11:40;7.07;;;3.10;;
70126;SDS011;57491;42.694;23.314;2023-04-03T00:14:07;5.90;;;3.22;;
70126;SDS011;57491;42.694;23.314;2023-04-03T00:16:34;10.20;;;3.95;;
70126;SDS011;57491;42.694;23.314;2023-04-03T00:19:01;7.15;;;3.20;;
70126;SDS011;57491;42.694;23.314;2023-04-03T00:21:30;6.87;;;3.37;;
70126;SDS011;57491;42.694;23.314;2023-04-03T00:23:57;5.03;;;2.83;;
70126;SDS011;57491;42.694;23.314;2023-04-03T00:26:23;9.23;;;3.83;;
70126;SDS011;57491;42.694;23.314;2023-04-03T00:28:50;7.88;;;4.20;;
70126;SDS011;57491;42.694;23.314;2023-04-03T00:31:17;14.70;;;7.85;;
70126;SDS011;57491;42.694;23.314;2023-04-03T00:33:45;16.85;;;8.82;;
70126;SDS011;57491;42.694;23.314;2023-04-03T00:36:12;16.27;;;8.85;;
70126;SDS011;57491;42.694;23.314;2023-04-03T00:38:40;16.10;;;7.97;;
70126;SDS011;57491;42.694;23.314;2023-04-03T00:41:07;18.50;;;9.40;;
70126;SDS011;57491;42.694;23.314;2023-04-03T00:43:34;16.48;;;7.88;;
70126;SDS011;57491;42.694;23.314;2023-04-03T00:46:02;11.90;;;6.90;;
70126;SDS011;57491;42.694;23.314;2023-04-03T00:48:30;10.38;;;5.80;;
70126;SDS011;57491;42.694;23.314;2023-04-03T00:50:59;8.95;;;5.55;;
70126;SDS011;57491;42.694;23.314;2023-04-03T00:55:58;9.45;;;5.50;;
70126;SDS011;57491;42.694;23.314;2023-04-03T00:58:28;9.57;;;5.35;;
70126;SDS011;57491;42.694;23.314;2023-04-03T01:01:00;10.73;;;5.60;;
70126;SDS011;57491;42.694;23.314;2023-04-03T01:03:31;11.73;;;6.03;;
70126;SDS011;57491;42.694;23.314;2023-04-03T01:05:58;11.70;;;5.32;;
70126;SDS011;57491;42.694;23.314;2023-04-03T01:08:26;10.07;;;4.78;;
70126;SDS011;57491;42.694;23.314;2023-04-03T01:10:53;7.55;;;4.65;;
70126;SDS011;57491;42.694;23.314;2023-04-03T01:13:22;9.27;;;4.50;;
70126;SDS011;57491;42.694;23.314;2023-04-03T01:15:52;7.45;;;3.88;;
70126;SDS011;57491;42.694;23.314;2023-04-03T01:18:19;5.43;;;3.40;;
70126;SDS011;57491;42.694;23.314;2023-04-03T01:23:51;6.13;;;3.20;;
70126;SDS011;57491;42.694;23.314;2023-04-03T01:26:24;5.03;;;2.80;;
70126;SDS011;57491;42.694;23.314;2023-04-03T01:28:54;4.18;;;2.95;;
70126;SDS011;57491;42.694;23.314;2023-04-03T01:31:22;4.85;;;3.00;;
70126;SDS011;57491;42.694;23.314;2023-04-03T01:33:54;5.32;;;2.88;;
70126;SDS011;57491;42.694;23.314;2023-04-03T01:36:23;5.28;;;3.63;;
70126;SDS011;57491;42.694;23.314;2023-04-03T01:38:52;6.60;;;3.40;;
70126;SDS011;57491;42.694;23.314;2023-04-03T01:41:20;9.07;;;4.38;;
70126;SDS011;57491;42.694;23.314;2023-04-03T01:43:47;6.47;;;4.40;;
70126;SDS011;57491;42.694;23.314;2023-04-03T01:46:15;5.07;;;3.55;;
70126;SDS011;57491;42.694;23.314;2023-04-03T01:48:43;5.68;;;3.58;;
70126;SDS011;57491;42.694;23.314;2023-04-03T01:51:11;5.33;;;3.47;;
70126;SDS011;57491;42.694;23.314;2023-04-03T01:53:39;6.90;;;3.50;;
70126;SDS011;57491;42.694;23.314;2023-04-03T01:56:06;5.10;;;3.15;;
70126;SDS011;57491;42.694;23.314;2023-04-03T01:58:34;5.97;;;3.22;;
70126;SDS011;57491;42.694;23.314;2023-04-03T02:01:01;4.50;;;2.60;;
70126;SDS011;57491;42.694;23.314;2023-04-03T02:03:28;3.35;;;2.53;;
70126;SDS011;57491;42.694;23.314;2023-04-03T02:05:56;5.68;;;2.80;;
70126;SDS011;57491;42.694;23.314;2023-04-03T02:08:24;3.08;;;2.65;;
70126;SDS011;57491;42.694;23.314;2023-04-03T02:10:51;4.72;;;2.60;;
70126;SDS011;57491;42.694;23.314;2023-04-03T02:13:18;3.70;;;2.55;;
70126;SDS011;57491;42.694;23.314;2023-04-03T02:15:46;4.18;;;2.53;;
70126;SDS011;57491;42.694;23.314;2023-04-03T02:18:13;3.90;;;2.67;;
70126;SDS011;57491;42.694;23.314;2023-04-03T02:20:40;5.68;;;3.30;;
70126;SDS011;57491;42.694;23.314;2023-04-03T02:23:07;3.80;;;2.85;;
70126;SDS011;57491;42.694;23.314;2023-04-03T02:25:36;9.00;;;4.70;;
70126;SDS011;57491;42.694;23.314;2023-04-03T02:28:03;4.60;;;2.50;;
70126;SDS011;57491;42.694;23.314;2023-04-03T02:30:30;3.87;;;2.90;;
70126;SDS011;57491;42.694;23.314;2023-04-03T02:32:57;3.42;;;2.80;;
70126;SDS011;57491;42.694;23.314;2023-04-03T02:35:24;4.82;;;2.80;;
70126;SDS011;57491;42.694;23.314;2023-04-03T02:37:51;3.58;;;2.42;;
70126;SDS011;57491;42.694;23.314;2023-04-03T02:40:18;3.90;;;2.80;;
70126;SDS011;57491;42.694;23.314;2023-04-03T02:42:47;6.17;;;3.47;;
70126;SDS011;57491;42.694;23.314;2023-04-03T02:45:14;5.72;;;3.30;;
70126;SDS011;57491;42.694;23.314;2023-04-03T02:47:41;8.03;;;3.57;;
70126;SDS011;57491;42.694;23.314;2023-04-03T02:50:08;6.35;;;3.25;;
70126;SDS011;57491;42.694;23.314;2023-04-03T02:52:35;4.40;;;3.50;;
70126;SDS011;57491;42.694;23.314;2023-04-03T02:55:03;6.90;;;3.83;;
70126;SDS011;57491;42.694;23.314;2023-04-03T02:57:30;5.70;;;3.95;;
70126;SDS011;57491;42.694;23.314;2023-04-03T02:59:59;4.75;;;3.20;;
70126;SDS011;57491;42.694;23.314;2023-04-03T03:02:26;6.50;;;3.83;;
70126;SDS011;57491;42.694;23.314;2023-04-03T03:04:53;7.47;;;4.18;;
70126;SDS011;57491;42.694;23.314;2023-04-03T03:07:20;6.13;;;3.92;;
70126;SDS011;57491;42.694;23.314;2023-04-03T03:09:47;5.95;;;3.60;;
70126;SDS011;57491;42.694;23.314;2023-04-03T03:12:14;5.77;;;3.70;;
70126;SDS011;57491;42.694;23.314;2023-04-03T03:14:41;6.15;;;4.30;;
70126;SDS011;57491;42.694;23.314;2023-04-03T03:17:09;7.13;;;3.67;;
70126;SDS011;57491;42.694;23.314;2023-04-03T03:19:36;6.28;;;3.58;;
70126;SDS011;57491;42.694;23.314;2023-04-03T03:22:03;5.72;;;3.75;;
70126;SDS011;57491;42.694;23.314;2023-04-03T03:24:30;8.45;;;4.15;;
70126;SDS011;57491;42.694;23.314;2023-04-03T03:26:57;7.95;;;4.22;;
70126;SDS011;57491;42.694;23.314;2023-04-03T03:29:25;7.40;;;4.50;;
70126;SDS011;57491;42.694;23.314;2023-04-03T03:31:52;5.65;;;3.80;;
70126;SDS011;57491;42.694;23.314;2023-04-03T03:34:20;5.35;;;3.63;;
70126;SDS011;57491;42.694;23.314;2023-04-03T03:36:47;6.10;;;3.80;;
70126;SDS011;57491;42.694;23.314;2023-04-03T03:39:14;6.18;;;4.22;;
70126;SDS011;57491;42.694;23.314;2023-04-03T03:41:41;11.85;;;4.50;;
70126;SDS011;57491;42.694;23.314;2023-04-03T03:44:08;23.37;;;8.33;;
70126;SDS011;57491;42.694;23.314;2023-04-03T03:46:36;19.02;;;8.57;;
70126;SDS011;57491;42.694;23.314;2023-04-03T03:49:03;16.20;;;7.25;;
70126;SDS011;57491;42.694;23.314;2023-04-03T03:51:31;26.60;;;10.10;;
70126;SDS011;57491;42.694;23.314;2023-04-03T03:53:58;27.63;;;9.60;;
70126;SDS011;57491;42.694;23.314;2023-04-03T03:56:25;23.25;;;9.63;;
70126;SDS011;57491;42.694;23.314;2023-04-03T03:58:52;20.95;;;10.90;;
70126;SDS011;57491;42.694;23.314;2023-04-03T04:01:21;19.52;;;8.80;;
70126;SDS011;57491;42.694;23.314;2023-04-03T04:03:49;19.90;;;9.00;;
70126;SDS011;57491;42.694;23.314;2023-04-03T04:06:16;19.52;;;8.55;;
70126;SDS011;57491;42.694;23.314;2023-04-03T04:08:45;15.02;;;9.75;;
70126;SDS011;57491;42.694;23.314;2023-04-03T04:11:12;15.13;;;8.27;;
70126;SDS011;57491;42.694;23.314;2023-04-03T04:13:39;19.15;;;8.02;;
70126;SDS011;57491;42.694;23.314;2023-04-03T04:16:06;19.60;;;8.57;;
70126;SDS011;57491;42.694;23.314;2023-04-03T04:18:33;16.92;;;9.05;;
70126;SDS011;57491;42.694;23.314;2023-04-03T04:21:00;18.05;;;8.77;;
70126;SDS011;57491;42.694;23.314;2023-04-03T04:23:28;16.17;;;8.88;;
70126;SDS011;57491;42.694;23.314;2023-04-03T04:25:56;15.30;;;8.80;;
70126;SDS011;57491;42.694;23.314;2023-04-03T04:28:23;15.95;;;9.40;;
70126;SDS011;57491;42.694;23.314;2023-04-03T04:30:50;21.65;;;7.80;;
70126;SDS011;57491;42.694;23.314;2023-04-03T04:33:17;18.08;;;8.77;;
70126;SDS011;57491;42.694;23.314;2023-04-03T04:35:46;22.52;;;9.45;;
70126;SDS011;57491;42.694;23.314;2023-04-03T04:38:13;17.25;;;9.98;;
70126;SDS011;57491;42.694;23.314;2023-04-03T04:40:40;23.50;;;10.32;;
70126;SDS011;57491;42.694;23.314;2023-04-03T04:43:09;22.23;;;10.88;;
70126;SDS011;57491;42.694;23.314;2023-04-03T04:45:39;27.35;;;11.25;;
70126;SDS011;57491;42.694;23.314;2023-04-03T04:48:06;22.50;;;9.33;;
70126;SDS011;57491;42.694;23.314;2023-04-03T04:50:34;25.20;;;9.67;;
70126;SDS011;57491;42.694;23.314;2023-04-03T04:53:01;20.10;;;9.50;;
70126;SDS011;57491;42.694;23.314;2023-04-03T04:55:28;28.00;;;10.50;;
70126;SDS011;57491;42.694;23.314;2023-04-03T04:57:55;23.73;;;11.15;;
70126;SDS011;57491;42.694;23.314;2023-04-03T05:00:23;23.25;;;10.02;;
70126;SDS011;57491;42.694;23.314;2023-04-03T05:02:50;21.58;;;9.93;;
70126;SDS011;57491;42.694;23.314;2023-04-03T05:05:17;21.50;;;10.60;;
70126;SDS011;57491;42.694;23.314;2023-04-03T05:07:44;22.63;;;10.75;;
70126;SDS011;57491;42.694;23.314;2023-04-03T05:10:11;25.50;;;10.18;;
70126;SDS011;57491;42.694;23.314;2023-04-03T05:12:39;21.67;;;10.80;;
70126;SDS011;57491;42.694;23.314;2023-04-03T05:15:06;22.25;;;11.60;;
70126;SDS011;57491;42.694;23.314;2023-04-03T05:17:35;23.52;;;10.98;;
70126;SDS011;57491;42.694;23.314;2023-04-03T05:20:02;32.50;;;11.80;;
70126;SDS011;57491;42.694;23.314;2023-04-03T05:22:30;26.52;;;12.07;;
70126;SDS011;57491;42.694;23.314;2023-04-03T05:24:58;30.83;;;10.87;;
70126;SDS011;57491;42.694;23.314;2023-04-03T05:27:25;17.42;;;11.55;;
70126;SDS011;57491;42.694;23.314;2023-04-03T05:29:53;23.95;;;10.43;;
70126;SDS011;57491;42.694;23.314;2023-04-03T05:32:21;25.17;;;10.40;;
70126;SDS011;57491;42.694;23.314;2023-04-03T05:34:50;20.35;;;10.57;;
70126;SDS011;57491;42.694;23.314;2023-04-03T05:37:17;23.75;;;10.70;;
70126;SDS011;57491;42.694;23.314;2023-04-03T05:39:44;24.88;;;12.88;;
70126;SDS011;57491;42.694;23.314;2023-04-03T05:42:11;20.70;;;11.35;;
70126;SDS011;57491;42.694;23.314;2023-04-03T05:44:39;21.75;;;11.88;;
70126;SDS011;57491;42.694;23.314;2023-04-03T05:47:06;28.27;;;13.93;;
70126;SDS011;57491;42.694;23.314;2023-04-03T05:49:33;31.42;;;15.43;;
70126;SDS011;57491;42.694;23.314;2023-04-03T05:52:01;31.90;;;14.18;;
70126;SDS011;57491;42.694;23.314;2023-04-03T05:54:29;24.55;;;13.60;;
70126;SDS011;57491;42.694;23.314;2023-04-03T05:56:56;32.28;;;13.80;;
70126;SDS011;57491;42.694;23.314;2023-04-03T05:59:23;26.92;;;12.60;;
70126;SDS011;57491;42.694;23.314;2023-04-03T06:01:51;27.67;;;12.33;;
70126;SDS011;57491;42.694;23.314;2023-04-03T06:04:18;21.00;;;12.10;;
70126;SDS011;57491;42.694;23.314;2023-04-03T06:09:15;21.33;;;12.35;;
70126;SDS011;57491;42.694;23.314;2023-04-03T06:11:42;32.10;;;13.63;;
70126;SDS011;57491;42.694;23.314;2023-04-03T06:14:10;25.60;;;13.65;;
70126;SDS011;57491;42.694;23.314;2023-04-03T06:16:38;23.17;;;12.20;;
70126;SDS011;57491;42.694;23.314;2023-04-03T06:19:05;17.30;;;11.05;;
70126;SDS011;57491;42.694;23.314;2023-04-03T06:21:33;19.40;;;10.57;;
70126;SDS011;57491;42.694;23.314;2023-04-03T06:24:01;20.92;;;10.75;;
70126;SDS011;57491;42.694;23.314;2023-04-03T06:26:29;17.20;;;10.50;;
70126;SDS011;57491;42.694;23.314;2023-04-03T06:28:57;15.90;;;9.80;;
70126;SDS011;57491;42.694;23.314;2023-04-03T06:31:24;18.15;;;10.38;;
70126;SDS011;57491;42.694;23.314;2023-04-03T06:33:51;17.00;;;11.07;;
70126;SDS011;57491;42.694;23.314;2023-04-03T06:36:19;19.73;;;9.83;;
70126;SDS011;57491;42.694;23.314;2023-04-03T06:38:47;14.98;;;9.88;;
70126;SDS011;57491;42.694;23.314;2023-04-03T06:41:15;21.40;;;10.13;;
70126;SDS011;57491;42.694;23.314;2023-04-03T06:43:44;15.43;;;9.43;;
70126;SDS011;57491;42.694;23.314;2023-04-03T06:46:14;18.05;;;9.82;;
70126;SDS011;57491;42.694;23.314;2023-04-03T06:48:42;15.63;;;9.77;;
70126;SDS011;57491;42.694;23.314;2023-04-03T06:51:14;19.75;;;10.55;;
70126;SDS011;57491;42.694;23.314;2023-04-03T06:53:45;16.90;;;10.02;;
70126;SDS011;57491;42.694;23.314;2023-04-03T06:56:13;22.63;;;9.50;;
70126;SDS011;57491;42.694;23.314;2023-04-03T06:58:40;17.05;;;9.43;;
70126;SDS011;57491;42.694;23.314;2023-04-03T07:01:09;15.77;;;9.03;;
70126;SDS011;57491;42.694;23.314;2023-04-03T07:03:36;16.38;;;8.70;;
70126;SDS011;57491;42.694;23.314;2023-04-03T07:06:04;20.00;;;10.50;;
70126;SDS011;57491;42.694;23.314;2023-04-03T07:08:33;20.45;;;13.43;;
70126;SDS011;57491;42.694;23.314;2023-04-03T07:11:01;13.73;;;7.88;;
70126;SDS011;57491;42.694;23.314;2023-04-03T07:13:29;16.50;;;9.20;;
70126;SDS011;57491;42.694;23.314;2023-04-03T07:15:56;15.23;;;10.35;;
70126;SDS011;57491;42.694;23.314;2023-04-03T07:18:25;19.93;;;10.43;;
70126;SDS011;57491;42.694;23.314;2023-04-03T07:20:52;14.75;;;9.73;;
70126;SDS011;57491;42.694;23.314;2023-04-03T07:23:19;18.33;;;9.13;;
70126;SDS011;57491;42.694;23.314;2023-04-03T07:25:47;19.33;;;10.63;;
70126;SDS011;57491;42.694;23.314;2023-04-03T07:28:15;22.45;;;10.73;;
70126;SDS011;57491;42.694;23.314;2023-04-03T07:30:43;19.10;;;11.23;;
70126;SDS011;57491;42.694;23.314;2023-04-03T07:33:11;21.08;;;11.25;;
70126;SDS011;57491;42.694;23.314;2023-04-03T07:35:41;20.77;;;12.10;;
70126;SDS011;57491;42.694;23.314;2023-04-03T07:38:09;18.95;;;11.10;;
70126;SDS011;57491;42.694;23.314;2023-04-03T07:40:36;12.20;;;9.65;;
70126;SDS011;57491;42.694;23.314;2023-04-03T07:43:04;13.98;;;8.93;;
70126;SDS011;57491;42.694;23.314;2023-04-03T07:45:31;16.70;;;9.88;;
70126;SDS011;57491;42.694;23.314;2023-04-03T07:48:01;24.92;;;10.20;;
70126;SDS011;57491;42.694;23.314;2023-04-03T07:50:28;18.50;;;10.70;;
70126;SDS011;57491;42.694;23.314;2023-04-03T07:52:57;18.48;;;12.18;;
70126;SDS011;57491;42.694;23.314;2023-04-03T07:55:25;22.23;;;11.93;;
70126;SDS011;57491;42.694;23.314;2023-04-03T07:57:52;18.75;;;11.32;;
70126;SDS011;57491;42.694;23.314;2023-04-03T08:00:20;18.13;;;11.82;;
70126;SDS011;57491;42.694;23.314;2023-04-03T08:02:48;19.20;;;11.63;;
70126;SDS011;57491;42.694;23.314;2023-04-03T08:05:17;22.92;;;12.88;;
70126;SDS011;57491;42.694;23.314;2023-04-03T08:07:44;18.90;;;12.18;;
70126;SDS011;57491;42.694;23.314;2023-04-03T08:10:13;20.30;;;12.10;;
70126;SDS011;57491;42.694;23.314;2023-04-03T08:12:40;19.05;;;11.68;;
70126;SDS011;57491;42.694;23.314;2023-04-03T08:15:08;18.65;;;11.27;;
70126;SDS011;57491;42.694;23.314;2023-04-03T08:17:36;17.27;;;10.93;;
70126;SDS011;57491;42.694;23.314;2023-04-03T08:20:03;18.60;;;10.47;;
70126;SDS011;57491;42.694;23.314;2023-04-03T08:22:33;12.80;;;9.80;;
70126;SDS011;57491;42.694;23.314;2023-04-03T08:25:00;14.63;;;9.35;;
70126;SDS011;57491;42.694;23.314;2023-04-03T08:27:29;15.02;;;9.63;;
70126;SDS011;57491;42.694;23.314;2023-04-03T08:29:56;21.30;;;10.48;;
70126;SDS011;57491;42.694;23.314;2023-04-03T08:32:23;18.57;;;10.90;;
70126;SDS011;57491;42.694;23.314;2023-04-03T08:34:50;16.40;;;9.77;;
70126;SDS011;57491;42.694;23.314;2023-04-03T08:37:17;23.13;;;11.07;;
70126;SDS011;57491;42.694;23.314;2023-04-03T08:39:45;19.48;;;11.07;;
70126;SDS011;57491;42.694;23.314;2023-04-03T08:42:14;19.42;;;9.75;;
70126;SDS011;57491;42.694;23.314;2023-04-03T08:44:48;19.58;;;11.18;;
70126;SDS011;57491;42.694;23.314;2023-04-03T08:47:23;18.00;;;11.07;;
70126;SDS011;57491;42.694;23.314;2023-04-03T08:49:54;19.13;;;11.18;;
70126;SDS011;57491;42.694;23.314;2023-04-03T08:52:25;21.15;;;12.48;;
70126;SDS011;57491;42.694;23.314;2023-04-03T08:55:00;20.92;;;11.60;;
70126;SDS011;57491;42.694;23.314;2023-04-03T08:57:30;23.85;;;10.98;;
70126;SDS011;57491;42.694;23.314;2023-04-03T09:00:03;19.02;;;10.48;;
70126;SDS011;57491;42.694;23.314;2023-04-03T09:02:34;19.88;;;12.60;;
70126;SDS011;57491;42.694;23.314;2023-04-03T09:05:11;24.90;;;12.65;;
70126;SDS011;57491;42.694;23.314;2023-04-03T09:07:42;19.17;;;12.60;;
70126;SDS011;57491;42.694;23.314;2023-04-03T09:10:13;27.65;;;14.30;;
70126;SDS011;57491;42.694;23.314;2023-04-03T09:12:42;23.50;;;13.25;;
70126;SDS011;57491;42.694;23.314;2023-04-03T09:15:18;22.50;;;13.15;;
70126;SDS011;57491;42.694;23.314;2023-04-03T09:17:50;16.13;;;10.63;;
70126;SDS011;57491;42.694;23.314;2023-04-03T09:22:57;17.88;;;11.35;;
70126;SDS011;57491;42.694;23.314;2023-04-03T09:25:26;25.52;;;12.63;;
70126;SDS011;57491;42.694;23.314;2023-04-03T09:27:58;24.42;;;14.88;;
70126;SDS011;57491;42.694;23.314;2023-04-03T09:30:28;23.27;;;14.18;;
70126;SDS011;57491;42.694;23.314;2023-04-03T09:32:56;22.10;;;13.48;;
70126;SDS011;57491;42.694;23.314;2023-04-03T09:35:24;25.15;;;13.40;;
70126;SDS011;57491;42.694;23.314;2023-04-03T09:37:55;22.02;;;13.05;;
70126;SDS011;57491;42.694;23.314;2023-04-03T09:40:33;19.15;;;12.82;;
70126;SDS011;57491;42.694;23.314;2023-04-03T09:45:49;18.48;;;12.75;;
70126;SDS011;57491;42.694;23.314;2023-04-03T09:48:18;21.63;;;13.27;;
70126;SDS011;57491;42.694;23.314;2023-04-03T09:50:54;14.55;;;11.55;;
70126;SDS011;57491;42.694;23.314;2023-04-03T09:56:18;23.35;;;12.35;;
70126;SDS011;57491;42.694;23.314;2023-04-03T09:58:48;17.55;;;13.25;;
70126;SDS011;57491;42.694;23.314;2023-04-03T10:01:23;15.50;;;12.15;;
70126;SDS011;57491;42.694;23.314;2023-04-03T10:04:02;22.42;;;13.25;;
70126;SDS011;57491;42.694;23.314;2023-04-03T10:06:33;22.23;;;12.13;;
70126;SDS011;57491;42.694;23.314;2023-04-03T10:09:03;20.05;;;12.20;;
70126;SDS011;57491;42.694;23.314;2023-04-03T10:11:32;22.13;;;13.02;;
70126;SDS011;57491;42.694;23.314;2023-04-03T10:14:01;17.13;;;9.63;;
70126;SDS011;57491;42.694;23.314;2023-04-03T10:16:36;20.73;;;10.70;;
70126;SDS011;57491;42.694;23.314;2023-04-03T10:19:13;15.00;;;8.90;;
70126;SDS011;57491;42.694;23.314;2023-04-03T10:21:55;13.55;;;8.70;;
70126;SDS011;57491;42.694;23.314;2023-04-03T10:24:28;25.25;;;10.88;;
70126;SDS011;57491;42.694;23.314;2023-04-03T10:27:02;15.98;;;10.45;;
70126;SDS011;57491;42.694;23.314;2023-04-03T10:29:36;42.30;;;10.93;;
70126;SDS011;57491;42.694;23.314;2023-04-03T10:32:13;24.30;;;11.23;;
70126;SDS011;57491;42.694;23.314;2023-04-03T10:34:52;16.50;;;8.32;;
70126;SDS011;57491;42.694;23.314;2023-04-03T10:37:24;12.75;;;6.82;;
70126;SDS011;57491;42.694;23.314;2023-04-03T10:39:56;16.38;;;7.22;;
70126;SDS011;57491;42.694;23.314;2023-04-03T10:42:28;14.30;;;7.40;;
70126;SDS011;57491;42.694;23.314;2023-04-03T10:45:10;14.63;;;7.57;;
70126;SDS011;57491;42.694;23.314;2023-04-03T10:47:50;10.25;;;7.82;;
70126;SDS011;57491;42.694;23.314;2023-04-03T10:50:27;16.55;;;7.72;;
70126;SDS011;57491;42.694;23.314;2023-04-03T10:53:04;12.88;;;7.75;;
70126;SDS011;57491;42.694;23.314;2023-04-03T10:55:38;19.30;;;9.38;;
70126;SDS011;57491;42.694;23.314;2023-04-03T10:58:16;16.85;;;10.52;;
70126;SDS011;57491;42.694;23.314;2023-04-03T11:00:48;12.65;;;5.93;;
70126;SDS011;57491;42.694;23.314;2023-04-03T11:03:23;12.73;;;7.13;;
70126;SDS011;57491;42.694;23.314;2023-04-03T11:05:57;6.75;;;4.32;;
70126;SDS011;57491;42.694;23.314;2023-04-03T11:08:29;10.32;;;4.47;;
70126;SDS011;57491;42.694;23.314;2023-04-03T11:11:04;11.65;;;5.53;;
70126;SDS011;57491;42.694;23.314;2023-04-03T11:13:36;6.78;;;4.63;;
70126;SDS011;57491;42.694;23.314;2023-04-03T11:16:09;6.97;;;4.28;;
70126;SDS011;57491;42.694;23.314;2023-04-03T11:18:46;9.10;;;5.03;;
70126;SDS011;57491;42.694;23.314;2023-04-03T11:21:17;8.88;;;4.13;;
70126;SDS011;57491;42.694;23.314;2023-04-03T11:23:51;6.22;;;4.03;;
70126;SDS011;57491;42.694;23.314;2023-04-03T11:26:21;6.05;;;4.63;;
70126;SDS011;57491;42.694;23.314;2023-04-03T11:28:52;7.38;;;4.45;;
70126;SDS011;57491;42.694;23.314;2023-04-03T11:31:26;7.93;;;3.60;;
70126;SDS011;57491;42.694;23.314;2023-04-03T11:34:08;9.90;;;4.32;;
70126;SDS011;57491;42.694;23.314;2023-04-03T11:36:48;6.22;;;3.47;;
70126;SDS011;57491;42.694;23.314;2023-04-03T11:39:19;7.93;;;3.25;;
70126;SDS011;57491;42.694;23.314;2023-04-03T11:41:51;8.90;;;3.60;;
70126;SDS011;57491;42.694;23.314;2023-04-03T11:44:27;5.22;;;4.38;;
70126;SDS011;57491;42.694;23.314;2023-04-03T11:46:59;4.70;;;3.40;;
70126;SDS011;57491;42.694;23.314;2023-04-03T11:55:43;5.28;;;3.47;;
70126;SDS011;57491;42.694;23.314;2023-04-03T11:58:13;4.28;;;3.03;;
70126;SDS011;57491;42.694;23.314;2023-04-03T12:00:46;5.57;;;3.25;;
70126;SDS011;57491;42.694;23.314;2023-04-03T12:09:32;3.05;;;2.70;;
70126;SDS011;57491;42.694;23.314;2023-04-03T12:12:22;3.20;;;2.88;;
70126;SDS011;57491;42.694;23.314;2023-04-03T12:14:54;5.85;;;4.13;;
70126;SDS011;57491;42.694;23.314;2023-04-03T12:17:22;3.35;;;2.67;;
70126;SDS011;57491;42.694;23.314;2023-04-03T12:19:54;4.50;;;3.63;;
70126;SDS011;57491;42.694;23.314;2023-04-03T12:22:21;9.15;;;3.65;;
70126;SDS011;57491;42.694;23.314;2023-04-03T12:24:51;4.93;;;3.22;;
70126;SDS011;57491;42.694;23.314;2023-04-03T12:27:23;3.53;;;3.10;;
70126;SDS011;57491;42.694;23.314;2023-04-03T12:29:56;5.55;;;3.40;;
70126;SDS011;57491;42.694;23.314;2023-04-03T12:32:45;6.18;;;4.65;;
70126;SDS011;57491;42.694;23.314;2023-04-03T12:35:24;4.75;;;3.47;;
70126;SDS011;57491;42.694;23.314;2023-04-03T12:38:06;6.43;;;3.50;;
70126;SDS011;57491;42.694;23.314;2023-04-03T12:41:04;5.65;;;4.05;;
70126;SDS011;57491;42.694;23.314;2023-04-03T12:43:49;5.85;;;3.65;;
70126;SDS011;57491;42.694;23.314;2023-04-03T12:46:28;6.25;;;3.97;;
70126;SDS011;57491;42.694;23.314;2023-04-03T12:49:10;4.35;;;3.40;;
70126;SDS011;57491;42.694;23.314;2023-04-03T12:52:00;5.90;;;3.85;;
70126;SDS011;57491;42.694;23.314;2023-04-03T12:54:32;5.45;;;4.03;;
70126;SDS011;57491;42.694;23.314;2023-04-03T12:57:10;7.50;;;4.45;;
70126;SDS011;57491;42.694;23.314;2023-04-03T12:59:37;8.30;;;4.90;;
70126;SDS011;57491;42.694;23.314;2023-04-03T13:02:13;8.15;;;4.97;;
70126;SDS011;57491;42.694;23.314;2023-04-03T13:04:46;7.45;;;5.10;;
70126;SDS011;57491;42.694;23.314;2023-04-03T13:07:23;11.82;;;5.25;;
70126;SDS011;57491;42.694;23.314;2023-04-03T13:12:47;6.90;;;5.32;;
70126;SDS011;57491;42.694;23.314;2023-04-03T13:15:17;6.13;;;4.97;;
70126;SDS011;57491;42.694;23.314;2023-04-03T13:17:46;7.13;;;4.80;;
70126;SDS011;57491;42.694;23.314;2023-04-03T13:20:17;10.63;;;5.78;;
70126;SDS011;57491;42.694;23.314;2023-04-03T13:22:48;8.95;;;6.00;;
70126;SDS011;57491;42.694;23.314;2023-04-03T13:25:19;6.75;;;6.03;;
70126;SDS011;57491;42.694;23.314;2023-04-03T13:27:49;8.57;;;5.78;;
70126;SDS011;57491;42.694;23.314;2023-04-03T13:30:20;9.43;;;6.00;;
70126;SDS011;57491;42.694;23.314;2023-04-03T13:32:50;8.63;;;6.32;;
70126;SDS011;57491;42.694;23.314;2023-04-03T13:35:32;9.68;;;6.40;;
70126;SDS011;57491;42.694;23.314;2023-04-03T13:38:02;8.35;;;6.28;;
70126;SDS011;57491;42.694;23.314;2023-04-03T13:40:32;12.18;;;6.93;;
70126;SDS011;57491;42.694;23.314;2023-04-03T13:43:02;8.07;;;6.53;;
70126;SDS011;57491;42.694;23.314;2023-04-03T13:45:33;8.10;;;6.13;;
70126;SDS011;57491;42.694;23.314;2023-04-03T13:48:08;8.23;;;5.60;;
70126;SDS011;57491;42.694;23.314;2023-04-03T13:50:54;7.40;;;6.32;;
70126;SDS011;57491;42.694;23.314;2023-04-03T13:53:24;6.93;;;5.80;;
70126;SDS011;57491;42.694;23.314;2023-04-03T13:55:53;6.85;;;5.53;;
70126;SDS011;57491;42.694;23.314;2023-04-03T13:58:27;6.43;;;5.32;;
70126;SDS011;57491;42.694;23.314;2023-04-03T14:00:59;7.13;;;5.28;;
70126;SDS011;57491;42.694;23.314;2023-04-03T14:03:31;6.32;;;5.63;;
70126;SDS011;57491;42.694;23.314;2023-04-03T14:06:00;9.50;;;6.00;;
70126;SDS011;57491;42.694;23.314;2023-04-03T14:08:35;8.38;;;5.55;;
70126;SDS011;57491;42.694;23.314;2023-04-03T14:11:02;6.93;;;6.10;;
70126;SDS011;57491;42.694;23.314;2023-04-03T14:13:31;8.07;;;6.45;;
70126;SDS011;57491;42.694;23.314;2023-04-03T14:15:58;9.43;;;7.25;;
70126;SDS011;57491;42.694;23.314;2023-04-03T14:18:25;10.75;;;6.90;;
70126;SDS011;57491;42.694;23.314;2023-04-03T14:20:52;7.65;;;5.82;;
70126;SDS011;57491;42.694;23.314;2023-04-03T14:23:19;9.53;;;7.23;;
70126;SDS011;57491;42.694;23.314;2023-04-03T14:25:47;11.65;;;7.93;;
70126;SDS011;57491;42.694;23.314;2023-04-03T14:28:16;8.80;;;7.40;;
70126;SDS011;57491;42.694;23.314;2023-04-03T14:30:46;8.23;;;7.28;;
70126;SDS011;57491;42.694;23.314;2023-04-03T14:33:15;10.27;;;7.88;;
70126;SDS011;57491;42.694;23.314;2023-04-03T14:35:44;10.18;;;7.57;;
70126;SDS011;57491;42.694;23.314;2023-04-03T14:38:21;8.70;;;6.88;;
70126;SDS011;57491;42.694;23.314;2023-04-03T14:40:51;8.80;;;5.88;;
70126;SDS011;57491;42.694;23.314;2023-04-03T14:43:19;8.43;;;6.25;;
70126;SDS011;57491;42.694;23.314;2023-04-03T14:45:49;13.43;;;8.15;;
70126;SDS011;57491;42.694;23.314;2023-04-03T14:48:17;15.93;;;9.75;;
70126;SDS011;57491;42.694;23.314;2023-04-03T14:50:46;10.73;;;7.72;;
70126;SDS011;57491;42.694;23.314;2023-04-03T14:55:42;9.27;;;5.88;;
70126;SDS011;57491;42.694;23.314;2023-04-03T14:58:12;8.23;;;5.95;;
70126;SDS011;57491;42.694;23.314;2023-04-03T15:00:40;18.33;;;10.10;;
70126;SDS011;57491;42.694;23.314;2023-04-03T15:03:11;10.93;;;5.20;;
70126;SDS011;57491;42.694;23.314;2023-04-03T15:05:41;10.82;;;7.15;;
70126;SDS011;57491;42.694;23.314;2023-04-03T15:08:13;9.85;;;6.38;;
70126;SDS011;57491;42.694;23.314;2023-04-03T15:10:45;5.28;;;4.10;;
70126;SDS011;57491;42.694;23.314;2023-04-03T15:13:13;6.35;;;4.60;;